Time;durP1;ratioP1;P1;durP2;ratioP2;P2;SDS_P1;SDS_P2;PMS_P1;PMS_P2;Temp;Humidity;BMP_temperature;BMP_pressure;BME280_temperature;BME280_humidity;BME280_pressure;Samples;Min_cycle;Max_cycle;Signal;HPM_P1;HPM_P2
2022/06/16 00:00:12;;;;;;;3.40;2.55;;;15.60;99.90;;;;;;5050736;28;20525;-86
2022/06/16 00:02:42;;;;;;;4.00;2.40;;;15.60;99.90;;;;;;5050308;28;20376;-84
2022/06/16 00:05:11;;;;;;;4.20;2.60;;;15.60;99.90;;;;;;5050265;28;20924;-84
2022/06/16 00:07:37;;;;;;;3.30;2.55;;;15.60;99.90;;;;;;5051531;28;20945;-84
2022/06/16 00:10:04;;;;;;;5.18;2.50;;;15.40;99.90;;;;;;5051618;28;20861;-85
2022/06/16 00:12:30;;;;;;;3.88;2.65;;;15.40;99.90;;;;;;5051157;28;20387;-86
2022/06/16 00:14:56;;;;;;;4.65;2.67;;;15.40;99.90;;;;;;5051522;28;20380;-85
2022/06/16 00:17:22;;;;;;;4.28;2.60;;;15.30;99.90;;;;;;5050994;28;20486;-84
2022/06/16 00:19:48;;;;;;;4.95;2.67;;;15.40;99.90;;;;;;5051518;28;20854;-84
2022/06/16 00:22:13;;;;;;;3.78;2.55;;;15.40;99.90;;;;;;5050974;28;21097;-84
2022/06/16 00:24:39;;;;;;;7.63;2.87;;;15.40;99.90;;;;;;5051633;28;20376;-86
2022/06/16 00:27:05;;;;;;;4.97;2.70;;;15.40;99.90;;;;;;5050181;28;20376;-85
2022/06/16 00:29:31;;;;;;;4.82;2.72;;;15.30;99.90;;;;;;5051027;28;20384;-85
2022/06/16 00:31:56;;;;;;;3.53;2.60;;;15.10;99.90;;;;;;5051428;28;20375;-85
2022/06/16 00:34:22;;;;;;;5.40;3.03;;;15.00;99.90;;;;;;5049356;28;20753;-84
2022/06/16 00:36:48;;;;;;;5.25;2.95;;;15.00;99.90;;;;;;5049436;28;20407;-84
2022/06/16 00:39:14;;;;;;;4.07;2.95;;;15.00;99.90;;;;;;5049762;28;20384;-84
2022/06/16 00:41:40;;;;;;;5.70;3.10;;;15.00;99.90;;;;;;5051070;28;20738;-84
2022/06/16 00:44:37;;;;;;;3.90;3.05;;;15.10;99.90;;;;;;5051064;28;20384;-83
2022/06/16 00:47:03;;;;;;;6.43;3.60;;;14.90;99.90;;;;;;5051079;28;20386;-84
2022/06/16 00:49:29;;;;;;;4.68;3.33;;;14.70;99.90;;;;;;5049668;28;20396;-84
2022/06/16 00:51:59;;;;;;;5.47;3.85;;;14.70;99.90;;;;;;5051154;28;20376;-84
2022/06/16 00:54:31;;;;;;;6.35;3.70;;;14.80;99.90;;;;;;5050788;28;20406;-84
2022/06/16 00:57:06;;;;;;;5.65;3.60;;;14.80;99.90;;;;;;5049075;28;20407;-84
2022/06/16 00:59:31;;;;;;;5.50;3.30;;;14.70;99.90;;;;;;5050326;28;20376;-84
2022/06/16 01:01:57;;;;;;;6.80;3.50;;;14.70;99.90;;;;;;5049696;28;20476;-84
2022/06/16 01:07:11;;;;;;;4.53;3.92;;;14.50;99.90;;;;;;5050465;28;20383;-84
2022/06/16 01:09:39;;;;;;;4.43;3.70;;;14.40;99.90;;;;;;5049272;28;20746;-84
2022/06/16 01:15:20;;;;;;;6.57;4.05;;;14.40;99.90;;;;;;5050265;28;20391;-84
2022/06/16 01:18:04;;;;;;;6.22;4.07;;;14.30;99.90;;;;;;5050139;28;20376;-84
2022/06/16 01:20:53;;;;;;;5.10;3.70;;;14.30;99.90;;;;;;5048412;28;20379;-84
2022/06/16 01:23:39;;;;;;;5.72;4.18;;;14.20;99.90;;;;;;5045715;28;20426;-85
2022/06/16 01:26:07;;;;;;;4.95;4.03;;;14.30;99.90;;;;;;5040835;28;20478;-84
2022/06/16 01:28:57;;;;;;;5.70;4.10;;;14.20;99.90;;;;;;5048183;28;20384;-84
2022/06/16 01:31:53;;;;;;;5.40;3.80;;;14.20;99.90;;;;;;5048433;28;20750;-84
2022/06/16 01:34:40;;;;;;;5.40;3.90;;;14.20;99.90;;;;;;5038168;28;20474;-84
2022/06/16 01:37:15;;;;;;;6.35;4.50;;;14.30;99.90;;;;;;5049603;28;20427;-84
2022/06/16 01:40:01;;;;;;;6.45;4.10;;;14.30;99.90;;;;;;5048195;28;20384;-84
2022/06/16 01:42:33;;;;;;;6.77;4.03;;;14.20;99.90;;;;;;5049470;28;20394;-84
2022/06/16 01:44:58;;;;;;;5.85;4.25;;;14.10;99.90;;;;;;5049660;28;20866;-84
2022/06/16 01:47:29;;;;;;;6.00;4.55;;;14.10;99.90;;;;;;5049259;28;20391;-84
2022/06/16 01:50:01;;;;;;;4.70;3.90;;;14.10;99.90;;;;;;5049440;28;20388;-84
2022/06/16 01:52:37;;;;;;;5.80;4.40;;;14.00;99.90;;;;;;5049652;28;20380;-84
2022/06/16 01:55:16;;;;;;;6.20;4.13;;;14.00;99.90;;;;;;5047168;28;20395;-84
2022/06/16 01:57:49;;;;;;;4.53;4.10;;;13.90;99.90;;;;;;5049382;28;20387;-83
2022/06/16 02:00:22;;;;;;;6.15;4.13;;;13.90;99.90;;;;;;5048494;28;20950;-84
2022/06/16 02:02:57;;;;;;;7.05;4.88;;;13.80;99.90;;;;;;5050057;28;20368;-83
2022/06/16 02:05:35;;;;;;;6.32;4.80;;;13.70;99.90;;;;;;5047517;28;20399;-84
2022/06/16 02:08:08;;;;;;;6.72;4.60;;;13.70;99.90;;;;;;5031810;28;20395;-84
2022/06/16 02:10:40;;;;;;;6.72;4.70;;;13.60;99.90;;;;;;5029285;28;20369;-85
2022/06/16 02:13:09;;;;;;;6.20;5.00;;;13.60;99.90;;;;;;5031616;28;20388;-83
2022/06/16 02:15:57;;;;;;;5.07;4.50;;;13.70;99.90;;;;;;5048594;28;20407;-84
2022/06/16 02:18:27;;;;;;;6.57;4.90;;;13.80;99.90;;;;;;5048786;28;20502;-84
2022/06/16 02:21:02;;;;;;;6.20;4.87;;;13.80;99.90;;;;;;5049315;28;20380;-84
2022/06/16 02:23:29;;;;;;;6.25;4.47;;;13.80;99.90;;;;;;5048786;28;20392;-84
2022/06/16 02:25:58;;;;;;;5.88;4.45;;;13.70;99.90;;;;;;5048956;28;20441;-83
2022/06/16 02:28:25;;;;;;;6.10;4.90;;;13.80;99.90;;;;;;5047896;28;20380;-84
2022/06/16 02:31:23;;;;;;;6.03;4.50;;;13.80;99.90;;;;;;5047776;28;20376;-84
2022/06/16 02:34:11;;;;;;;5.90;4.15;;;13.80;99.90;;;;;;5046741;28;20422;-84
2022/06/16 02:36:57;;;;;;;6.63;4.60;;;14.10;99.90;;;;;;5028918;28;20406;-83
2022/06/16 02:40:04;;;;;;;5.97;4.65;;;13.90;99.90;;;;;;5029153;28;20435;-83
2022/06/16 02:42:39;;;;;;;10.73;5.70;;;13.90;99.90;;;;;;5022482;28;20381;-83
2022/06/16 02:45:29;;;;;;;5.60;4.43;;;13.90;99.90;;;;;;5046163;28;20387;-85
2022/06/16 02:48:32;;;;;;;8.13;4.97;;;13.80;99.90;;;;;;5032203;28;21269;-83
2022/06/16 02:51:03;;;;;;;5.80;4.90;;;13.70;99.90;;;;;;5049250;28;20376;-84
2022/06/16 02:53:52;;;;;;;8.45;4.72;;;13.80;99.90;;;;;;5047084;28;20481;-84
2022/06/16 02:56:36;;;;;;;6.93;5.50;;;13.70;99.90;;;;;;5047428;28;20408;-84
2022/06/16 02:59:09;;;;;;;5.78;5.18;;;13.70;99.90;;;;;;5046469;28;20391;-83
2022/06/16 03:01:35;;;;;;;7.22;5.22;;;13.70;99.90;;;;;;5047497;28;20415;-83
2022/06/16 03:04:11;;;;;;;7.90;5.32;;;13.70;99.90;;;;;;5048226;28;20436;-83
2022/06/16 03:06:37;;;;;;;5.13;4.63;;;13.70;99.90;;;;;;5047169;28;20438;-83
2022/06/16 03:09:04;;;;;;;6.63;5.15;;;13.70;99.90;;;;;;5047694;28;20388;-83
2022/06/16 03:11:34;;;;;;;5.65;4.82;;;13.70;99.90;;;;;;5047107;28;20435;-83
2022/06/16 03:14:00;;;;;;;5.65;4.30;;;13.60;99.90;;;;;;5048478;28;20384;-84
2022/06/16 03:16:26;;;;;;;7.30;5.18;;;13.70;99.90;;;;;;5048340;28;20416;-83
2022/06/16 03:18:51;;;;;;;7.32;5.25;;;13.70;99.90;;;;;;5047891;28;20415;-84
2022/06/16 03:21:18;;;;;;;7.63;5.23;;;13.70;99.90;;;;;;5047061;28;20383;-83
2022/06/16 03:23:43;;;;;;;6.40;4.50;;;13.60;99.90;;;;;;5047113;28;20376;-83
2022/06/16 03:26:09;;;;;;;5.50;4.67;;;13.70;99.90;;;;;;5048529;28;20380;-84
2022/06/16 03:28:36;;;;;;;6.00;5.00;;;13.60;99.90;;;;;;5047032;28;20988;-83
2022/06/16 03:31:02;;;;;;;5.95;5.15;;;13.70;99.90;;;;;;5048439;28;20398;-82
2022/06/16 03:33:27;;;;;;;5.03;4.45;;;13.70;99.90;;;;;;5046871;28;20396;-83
2022/06/16 03:35:53;;;;;;;7.83;5.43;;;13.70;99.90;;;;;;5052030;28;21134;-84
2022/06/16 03:40:45;;;;;;;6.82;4.93;;;13.70;99.90;;;;;;5052544;28;20789;-83
2022/06/16 03:43:11;;;;;;;22.80;6.03;;;13.70;99.90;;;;;;5052232;28;20376;-83
2022/06/16 03:45:37;;;;;;;7.07;4.80;;;13.70;99.90;;;;;;5052329;28;20517;-84
2022/06/16 03:48:04;;;;;;;6.68;4.50;;;13.60;99.90;;;;;;5050424;28;20391;-83
2022/06/16 03:50:30;;;;;;;9.93;4.93;;;13.80;99.90;;;;;;5051114;28;20393;-85
2022/06/16 03:52:55;;;;;;;6.07;4.53;;;13.90;99.90;;;;;;5051667;28;20390;-84
2022/06/16 03:55:21;;;;;;;5.57;4.70;;;13.90;99.90;;;;;;5051895;28;20396;-84
2022/06/16 03:57:47;;;;;;;17.63;5.05;;;14.10;99.90;;;;;;5050452;28;20473;-82
2022/06/16 04:00:14;;;;;;;8.23;4.20;;;14.20;99.90;;;;;;5050446;28;20382;-84
2022/06/16 04:02:40;;;;;;;4.90;4.28;;;14.30;99.90;;;;;;5051477;28;20384;-82
2022/06/16 04:05:07;;;;;;;9.48;4.30;;;14.40;99.90;;;;;;5051269;28;20394;-83
2022/06/16 04:07:35;;;;;;;5.72;4.60;;;14.40;99.90;;;;;;5050570;28;20403;-86
2022/06/16 04:10:02;;;;;;;6.30;3.85;;;14.50;99.90;;;;;;5050228;28;20380;-85
2022/06/16 04:12:27;;;;;;;6.20;3.88;;;14.70;99.90;;;;;;5050337;28;20745;-85
2022/06/16 04:14:54;;;;;;;6.03;4.10;;;14.70;99.90;;;;;;5050728;28;20380;-84
2022/06/16 04:17:20;;;;;;;6.22;4.20;;;14.70;99.90;;;;;;5050304;28;21042;-83
2022/06/16 04:22:30;;;;;;;4.63;3.83;;;14.70;99.90;;;;;;5051907;28;20437;-84
2022/06/16 04:24:56;;;;;;;7.32;4.20;;;14.60;99.90;;;;;;5051368;28;20384;-84
2022/06/16 04:27:22;;;;;;;4.53;3.80;;;14.60;99.90;;;;;;5049796;28;20388;-83
2022/06/16 04:29:48;;;;;;;5.40;3.73;;;14.70;99.90;;;;;;5050861;28;20372;-85
2022/06/16 04:32:14;;;;;;;22.83;5.77;;;14.80;99.90;;;;;;5051078;28;20916;-85
2022/06/16 04:34:40;;;;;;;4.95;3.72;;;14.90;99.90;;;;;;5050886;28;20445;-84
2022/06/16 04:37:06;;;;;;;5.65;3.88;;;15.00;99.90;;;;;;5049452;28;20432;-84
2022/06/16 04:39:33;;;;;;;5.88;3.67;;;15.10;99.90;;;;;;5049954;28;20449;-84
2022/06/16 04:41:58;;;;;;;7.20;3.70;;;15.20;99.90;;;;;;5051644;28;20380;-84
2022/06/16 04:44:24;;;;;;;8.13;3.50;;;15.50;99.90;;;;;;5050616;28;20384;-84
2022/06/16 04:46:49;;;;;;;4.33;3.27;;;15.60;99.90;;;;;;5051330;28;20529;-84
2022/06/16 04:49:15;;;;;;;4.57;2.95;;;15.70;99.90;;;;;;5051805;28;20403;-83
2022/06/16 04:51:41;;;;;;;6.57;3.23;;;15.90;99.90;;;;;;5049451;28;20396;-86
2022/06/16 04:54:07;;;;;;;5.83;3.07;;;16.20;99.90;;;;;;5050816;28;20372;-85
2022/06/16 04:56:32;;;;;;;3.63;2.65;;;16.40;99.90;;;;;;5050274;28;20961;-84
2022/06/16 04:58:58;;;;;;;6.13;2.95;;;16.60;99.90;;;;;;5049709;28;20877;-85
2022/06/16 05:01:24;;;;;;;6.77;2.87;;;16.90;99.90;;;;;;5050916;28;20467;-85
2022/06/16 05:03:51;;;;;;;5.15;3.28;;;16.80;99.90;;;;;;5049243;28;20379;-84
2022/06/16 05:06:17;;;;;;;5.22;2.92;;;16.70;99.90;;;;;;5049572;28;20438;-85
2022/06/16 05:08:43;;;;;;;5.53;3.15;;;16.90;99.90;;;;;;5050439;28;20376;-85
2022/06/16 05:11:09;;;;;;;7.57;3.33;;;17.10;99.90;;;;;;5049319;28;20534;-85
2022/06/16 05:13:35;;;;;;;5.40;2.60;;;17.60;99.90;;;;;;5048812;28;20425;-87
2022/06/16 05:16:00;;;;;;;4.35;2.75;;;18.00;99.90;;;;;;5050581;28;20470;-84
2022/06/16 05:18:26;;;;;;;4.60;2.58;;;18.30;99.90;;;;;;5048910;28;20395;-84
2022/06/16 05:20:51;;;;;;;6.57;2.77;;;18.70;99.90;;;;;;5049285;28;20412;-86
2022/06/16 05:23:18;;;;;;;7.03;2.70;;;18.80;99.90;;;;;;5049252;28;20437;-86
2022/06/16 05:25:44;;;;;;;5.78;2.95;;;18.70;99.90;;;;;;5049082;28;20434;-85
2022/06/16 05:28:11;;;;;;;6.67;2.97;;;18.70;99.90;;;;;;5050885;28;20388;-86
2022/06/16 05:30:36;;;;;;;6.07;2.88;;;18.60;99.90;;;;;;5047539;28;20380;-85
2022/06/16 05:33:02;;;;;;;27.20;4.83;;;18.60;99.90;;;;;;5050563;28;20376;-85
2022/06/16 05:35:28;;;;;;;4.70;2.67;;;18.70;99.90;;;;;;5047609;28;20535;-85
2022/06/16 05:37:54;;;;;;;4.18;2.83;;;18.70;99.90;;;;;;5050617;28;20376;-86
2022/06/16 05:40:20;;;;;;;8.03;2.90;;;18.70;99.90;;;;;;5047906;28;20379;-84
2022/06/16 05:42:45;;;;;;;6.10;3.13;;;18.50;99.90;;;;;;5047566;28;20376;-86
2022/06/16 05:45:12;;;;;;;14.32;3.25;;;18.50;99.90;;;;;;5049186;28;20395;-86
2022/06/16 05:47:38;;;;;;;9.13;2.88;;;18.40;99.90;;;;;;5050065;28;20375;-85
2022/06/16 05:50:06;;;;;;;4.10;2.70;;;18.40;99.90;;;;;;5049517;28;20395;-86
2022/06/16 05:52:32;;;;;;;6.03;2.70;;;18.60;99.90;;;;;;5048651;28;20415;-85
2022/06/16 05:54:57;;;;;;;5.53;2.85;;;18.70;99.90;;;;;;5046540;28;20939;-85
2022/06/16 05:57:23;;;;;;;5.27;2.77;;;18.70;99.90;;;;;;5045562;28;20400;-85
2022/06/16 05:59:49;;;;;;;7.85;3.10;;;18.70;99.90;;;;;;5047960;28;20490;-86
2022/06/16 06:02:18;;;;;;;7.90;2.87;;;18.80;99.90;;;;;;5048190;28;20452;-86
2022/06/16 06:04:45;;;;;;;4.38;2.28;;;18.70;99.90;;;;;;5048247;28;20376;-86
2022/06/16 06:07:11;;;;;;;5.10;2.57;;;18.80;99.90;;;;;;5047864;28;20488;-85
2022/06/16 06:18:15;;;;;;;4.43;2.77;;;19.10;99.90;;;;;;5049683;28;20383;-84
2022/06/16 06:20:41;;;;;;;10.10;3.10;;;19.40;99.90;;;;;;5045830;28;20408;-82
2022/06/16 06:23:07;;;;;;;8.27;3.03;;;19.60;99.90;;;;;;5047455;28;20742;-84
2022/06/16 06:25:33;;;;;;;5.17;2.67;;;19.60;99.90;;;;;;5048213;28;20379;-84
2022/06/16 06:27:58;;;;;;;6.32;2.60;;;19.50;99.90;;;;;;5049054;28;20383;-84
2022/06/16 06:30:30;;;;;;;9.13;3.03;;;19.60;99.90;;;;;;5049285;28;20388;-87
2022/06/16 06:32:58;;;;;;;11.00;3.15;;;19.70;99.90;;;;;;5048644;28;20387;-84
2022/06/16 06:35:24;;;;;;;6.83;2.70;;;19.60;99.90;;;;;;5049277;28;20394;-84
2022/06/16 06:37:51;;;;;;;4.67;2.50;;;19.60;99.90;;;;;;5048341;28;20816;-84
2022/06/16 06:40:21;;;;;;;5.75;2.50;;;19.60;99.90;;;;;;5049753;28;20387;-84
2022/06/16 06:42:47;;;;;;;4.13;2.38;;;19.80;99.90;;;;;;5049059;28;20387;-85
2022/06/16 06:45:12;;;;;;;5.57;2.53;;;19.90;99.90;;;;;;5048056;28;20411;-87
2022/06/16 06:47:38;;;;;;;5.80;2.57;;;20.10;99.90;;;;;;5048039;28;20376;-85
2022/06/16 06:50:04;;;;;;;5.57;2.60;;;20.30;99.90;;;;;;5050882;28;20486;-85
2022/06/16 06:52:30;;;;;;;3.80;2.55;;;20.50;99.90;;;;;;5048500;28;20798;-86
2022/06/16 06:54:56;;;;;;;5.90;2.63;;;20.80;99.90;;;;;;5047801;28;20427;-85
2022/06/16 06:57:25;;;;;;;3.90;2.30;;;20.70;99.90;;;;;;5049832;28;20403;-86
2022/06/16 06:59:51;;;;;;;4.65;2.47;;;20.80;99.90;;;;;;5050130;28;20459;-84
2022/06/16 07:02:19;;;;;;;4.43;2.30;;;21.20;99.90;;;;;;5052166;28;20975;-84
2022/06/16 07:04:45;;;;;;;3.60;2.30;;;21.40;99.90;;;;;;5049540;28;20734;-85
2022/06/16 07:07:14;;;;;;;21.87;3.90;;;21.10;99.90;;;;;;5049514;28;20372;-86
2022/06/16 07:09:40;;;;;;;5.00;2.50;;;21.00;99.90;;;;;;5051897;28;20466;-85
2022/06/16 07:12:13;;;;;;;4.03;2.47;;;21.00;99.90;;;;;;5052172;28;20391;-85
2022/06/16 07:14:40;;;;;;;4.90;2.65;;;20.50;99.90;;;;;;5053524;28;20371;-86
2022/06/16 07:17:06;;;;;;;5.80;2.47;;;20.00;99.90;;;;;;5052207;28;20877;-84
2022/06/16 07:19:34;;;;;;;4.22;2.50;;;20.00;99.90;;;;;;5052751;28;20388;-88
2022/06/16 07:22:00;;;;;;;4.55;2.40;;;20.50;99.90;;;;;;5049346;28;20383;-85
2022/06/16 07:24:26;;;;;;;3.35;2.30;;;21.00;99.90;;;;;;5051650;28;20380;-86
2022/06/16 07:26:52;;;;;;;4.13;2.10;;;21.20;99.90;;;;;;5050839;28;20394;-86
2022/06/16 07:29:17;;;;;;;5.80;2.25;;;21.40;99.90;;;;;;5051521;28;20889;-85
2022/06/16 07:31:43;;;;;;;4.37;2.40;;;21.60;99.90;;;;;;5052130;28;21044;-85
2022/06/16 07:34:09;;;;;;;6.82;2.40;;;21.70;99.90;;;;;;5051322;28;20963;-87
2022/06/16 07:36:35;;;;;;;3.50;2.30;;;21.90;99.90;;;;;;5053110;28;20464;-85
2022/06/16 07:39:02;;;;;;;4.38;2.47;;;22.20;99.90;;;;;;5053310;28;20870;-84
2022/06/16 07:41:31;;;;;;;5.70;2.25;;;22.50;99.60;;;;;;5051885;28;20462;-86
2022/06/16 07:44:00;;;;;;;5.17;2.30;;;22.70;99.40;;;;;;5052904;28;20379;-84
2022/06/16 07:46:26;;;;;;;3.63;2.40;;;22.50;98.00;;;;;;5051534;28;20379;-87
2022/06/16 07:48:53;;;;;;;4.13;2.70;;;21.70;98.60;;;;;;5050958;28;20992;-85
2022/06/16 07:51:20;;;;;;;4.63;2.50;;;21.50;99.90;;;;;;5050679;28;20426;-86
2022/06/16 07:53:47;;;;;;;7.30;2.70;;;21.70;99.30;;;;;;5052476;28;20882;-86
2022/06/16 07:56:13;;;;;;;3.30;2.30;;;21.80;99.90;;;;;;5051127;28;20443;-85
2022/06/16 07:58:39;;;;;;;4.35;2.45;;;22.50;98.90;;;;;;5051049;28;20376;-86
2022/06/16 08:01:07;;;;;;;2.90;2.10;;;22.70;99.40;;;;;;5050486;28;20471;-85
2022/06/16 08:03:36;;;;;;;4.88;2.50;;;23.00;98.70;;;;;;5051969;28;20916;-86
2022/06/16 08:06:06;;;;;;;7.07;2.90;;;23.00;96.90;;;;;;5051240;28;20383;-85
2022/06/16 08:08:32;;;;;;;3.45;2.38;;;22.60;97.60;;;;;;5050092;28;20407;-86
2022/06/16 08:10:59;;;;;;;3.92;2.60;;;22.60;98.50;;;;;;5049774;28;20803;-85
2022/06/16 08:13:26;;;;;;;4.55;2.45;;;22.60;97.50;;;;;;5049859;28;21164;-86
2022/06/16 08:15:53;;;;;;;5.30;2.58;;;22.60;98.20;;;;;;5050523;28;20434;-86
2022/06/16 08:18:21;;;;;;;4.63;2.55;;;23.00;96.10;;;;;;5050016;28;20379;-85
2022/06/16 08:20:48;;;;;;;3.53;2.00;;;23.20;96.60;;;;;;5048637;28;20411;-86
2022/06/16 08:23:14;;;;;;;4.93;2.60;;;23.30;96.80;;;;;;5051765;28;20406;-85
2022/06/16 08:25:45;;;;;;;5.38;2.60;;;23.20;96.60;;;;;;5049783;28;20902;-87
2022/06/16 08:28:15;;;;;;;4.32;2.60;;;23.10;95.80;;;;;;5049440;28;20445;-83
2022/06/16 08:30:44;;;;;;;3.45;2.30;;;23.10;96.10;;;;;;5050101;28;20422;-85
2022/06/16 08:33:13;;;;;;;7.38;2.60;;;23.20;96.60;;;;;;5051152;28;20390;-85
2022/06/16 08:35:41;;;;;;;11.43;3.10;;;23.50;96.40;;;;;;5051242;28;20405;-85
2022/06/16 08:38:07;;;;;;;3.83;2.53;;;23.80;94.90;;;;;;5049468;28;20407;-86
2022/06/16 08:40:40;;;;;;;6.43;2.50;;;24.00;94.30;;;;;;5051135;28;20462;-89
2022/06/16 08:43:13;;;;;;;6.30;2.40;;;24.10;95.10;;;;;;5049867;28;20387;-85
2022/06/16 08:45:49;;;;;;;5.15;2.58;;;24.20;93.50;;;;;;5050518;28;20501;-89
2022/06/16 08:48:32;;;;;;;5.10;2.10;;;23.90;93.70;;;;;;5051160;28;20388;-87
2022/06/16 08:51:12;;;;;;;3.78;2.20;;;23.90;93.70;;;;;;5048848;28;20862;-84
2022/06/16 08:54:22;;;;;;;4.70;2.00;;;24.10;93.50;;;;;;5049314;28;20388;-86
2022/06/16 08:57:08;;;;;;;5.03;2.30;;;24.40;94.40;;;;;;5049360;28;20423;-86
2022/06/16 08:59:44;;;;;;;3.08;2.03;;;24.70;92.80;;;;;;5049482;28;20423;-87
2022/06/16 09:02:24;;;;;;;4.85;2.35;;;25.20;92.50;;;;;;5048552;28;20893;-85
2022/06/16 09:04:58;;;;;;;7.90;2.30;;;25.20;91.50;;;;;;5050099;28;20376;-85
2022/06/16 09:07:45;;;;;;;4.93;2.00;;;24.30;92.00;;;;;;5050335;28;20376;-87
2022/06/16 09:10:23;;;;;;;4.60;2.10;;;24.50;92.80;;;;;;5048950;28;20383;-87
2022/06/16 09:13:19;;;;;;;3.95;2.10;;;24.40;92.30;;;;;;5048866;28;20380;-87
2022/06/16 09:16:06;;;;;;;6.00;2.70;;;24.00;92.10;;;;;;5029249;28;20405;-86
2022/06/16 09:18:43;;;;;;;4.45;2.28;;;23.50;92.50;;;;;;5028853;28;20431;-87
2022/06/16 09:21:39;;;;;;;4.65;2.40;;;23.60;94.10;;;;;;5030011;28;20380;-87
2022/06/16 09:24:14;;;;;;;3.28;2.20;;;24.00;92.70;;;;;;5028370;28;20409;-85
2022/06/16 09:27:09;;;;;;;3.05;1.92;;;23.60;92.70;;;;;;5029462;28;20386;-87
2022/06/16 09:29:42;;;;;;;4.45;2.10;;;;;;;;;;5028623;28;20389;-85
2022/06/16 09:32:16;;;;;;;3.65;2.10;;;;;;;;;;5029111;28;20385;-86
2022/06/16 09:34:45;;;;;;;3.97;2.20;;;;;;;;;;5028735;28;20444;-87
2022/06/16 09:37:15;;;;;;;6.25;2.28;;;;;;;;;;5029066;28;20409;-87
2022/06/16 09:39:47;;;;;;;4.20;2.33;;;;;;;;;;5030094;28;20381;-87
2022/06/16 09:42:38;;;;;;;4.30;2.10;;;;;;;;;;5030140;28;20373;-87
2022/06/16 09:45:10;;;;;;;2.83;1.83;;;;;;;;;;5028054;28;20377;-85
2022/06/16 09:47:49;;;;;;;4.00;2.30;;;25.70;89.00;;;;;;5028163;28;20473;-84
2022/06/16 09:50:27;;;;;;;3.70;1.92;;;25.60;89.60;;;;;;5028772;28;20397;-86
2022/06/16 09:52:59;;;;;;;4.32;2.28;;;25.30;91.40;;;;;;5027633;28;20879;-86
2022/06/16 09:55:35;;;;;;;3.65;1.95;;;25.50;90.20;;;;;;5047591;28;20470;-88
2022/06/16 09:58:29;;;;;;;4.88;1.92;;;24.90;90.20;;;;;;5048961;28;20947;-86
2022/06/16 10:00:55;;;;;;;4.32;2.00;;;24.50;90.30;;;;;;5048909;28;21006;-87
2022/06/16 10:03:35;;;;;;;4.43;2.15;;;24.30;90.80;;;;;;5050533;28;20384;-85
2022/06/16 10:06:16;;;;;;;3.17;2.00;;;24.30;90.60;;;;;;5049361;28;20448;-86
2022/06/16 10:09:08;;;;;;;5.78;2.22;;;24.00;90.90;;;;;;5047553;28;20380;-84
2022/06/16 10:12:00;;;;;;;5.22;2.40;;;23.80;91.20;;;;;;5048368;28;20383;-88
2022/06/16 10:14:47;;;;;;;3.05;1.98;;;23.60;91.50;;;;;;5047646;28;20784;-87
2022/06/16 10:17:17;;;;;;;3.27;2.13;;;23.50;92.00;;;;;;5046932;28;20404;-85
2022/06/16 10:19:44;;;;;;;3.63;2.13;;;23.40;91.70;;;;;;5048092;28;20870;-85
2022/06/16 10:22:14;;;;;;;4.78;2.30;;;23.60;92.40;;;;;;5047323;28;20961;-87
2022/06/16 10:25:01;;;;;;;3.70;1.90;;;23.80;91.20;;;;;;5047056;28;20408;-84
2022/06/16 10:27:38;;;;;;;3.38;2.10;;;23.90;91.20;;;;;;5046797;28;20947;-86
2022/06/16 10:30:07;;;;;;;4.75;2.17;;;23.90;91.20;;;;;;5049136;28;20391;-85
2022/06/16 10:32:45;;;;;;;4.80;1.92;;;24.10;89.40;;;;;;5047163;28;20384;-85
2022/06/16 10:35:17;;;;;;;2.35;1.65;;;24.00;90.30;;;;;;5049066;28;20391;-86
2022/06/16 10:37:45;;;;;;;3.63;1.98;;;23.80;89.80;;;;;;5047360;28;20479;-86
2022/06/16 10:40:21;;;;;;;3.40;2.00;;;23.40;90.40;;;;;;5045772;28;20414;-84
2022/06/16 10:43:00;;;;;;;3.53;2.08;;;23.20;90.80;;;;;;5047658;28;20420;-86
2022/06/16 10:45:29;;;;;;;3.88;2.08;;;23.30;90.60;;;;;;5046537;28;20388;-85
2022/06/16 10:48:10;;;;;;;2.72;1.63;;;23.30;90.90;;;;;;5047968;28;20471;-85
2022/06/16 10:51:01;;;;;;;3.72;2.00;;;23.20;90.70;;;;;;5047013;28;20400;-85
2022/06/16 10:53:32;;;;;;;4.78;2.20;;;23.00;90.60;;;;;;5040191;28;20608;-87
2022/06/16 10:56:07;;;;;;;4.53;2.00;;;22.90;91.00;;;;;;5044007;28;20414;-87
2022/06/16 10:58:42;;;;;;;6.13;2.50;;;23.10;91.50;;;;;;5046430;28;20402;-85
2022/06/16 11:01:16;;;;;;;6.53;2.20;;;23.20;90.50;;;;;;5047649;28;20415;-85
2022/06/16 11:03:45;;;;;;;4.43;2.00;;;22.90;90.60;;;;;;5047789;28;20376;-84
2022/06/16 11:06:17;;;;;;;4.65;2.35;;;22.80;91.70;;;;;;5046140;28;20406;-86
2022/06/16 11:08:58;;;;;;;4.28;2.08;;;22.60;91.30;;;;;;5047092;28;20386;-85
2022/06/16 11:11:40;;;;;;;4.95;2.80;;;22.80;92.10;;;;;;5046990;28;20395;-87
2022/06/16 11:14:12;;;;;;;4.03;1.90;;;23.00;90.60;;;;;;5047100;28;20473;-85
2022/06/16 11:16:44;;;;;;;4.70;2.28;;;22.80;91.20;;;;;;5046586;28;20747;-86
2022/06/16 11:19:16;;;;;;;4.65;2.17;;;22.90;90.60;;;;;;5048196;28;20395;-87
2022/06/16 11:21:45;;;;;;;5.30;1.90;;;23.00;91.10;;;;;;5048865;28;20383;-87
2022/06/16 11:24:25;;;;;;;3.13;1.95;;;23.00;91.50;;;;;;5046364;28;20427;-87
2022/06/16 11:27:00;;;;;;;5.33;2.23;;;23.10;92.10;;;;;;5047492;28;20375;-85
2022/06/16 11:29:33;;;;;;;7.55;2.47;;;23.50;91.00;;;;;;5047325;28;20419;-87
2022/06/16 11:32:19;;;;;;;3.40;1.90;;;23.50;90.90;;;;;;5046951;28;20391;-85
2022/06/16 11:34:46;;;;;;;5.73;2.13;;;23.30;91.10;;;;;;5047548;28;20402;-85
2022/06/16 11:37:38;;;;;;;3.92;2.15;;;23.10;90.50;;;;;;5046570;28;20766;-87
2022/06/16 11:40:23;;;;;;;4.40;2.33;;;23.00;91.80;;;;;;5045937;28;20401;-87
2022/06/16 11:42:55;;;;;;;3.22;2.10;;;23.20;90.70;;;;;;5046930;28;20379;-86
2022/06/16 11:45:21;;;;;;;3.70;2.30;;;23.60;91.00;;;;;;5047365;28;20769;-87
2022/06/16 11:48:08;;;;;;;4.78;2.28;;;23.30;90.20;;;;;;5047247;28;20380;-85
2022/06/16 11:50:40;;;;;;;4.80;2.40;;;23.20;92.00;;;;;;5047290;28;20467;-87
2022/06/16 11:53:35;;;;;;;8.65;2.38;;;23.40;90.80;;;;;;5046959;28;20384;-88
2022/06/16 11:56:16;;;;;;;6.72;2.33;;;23.60;91.50;;;;;;5049862;28;20956;-88
2022/06/16 11:58:59;;;;;;;4.78;2.10;;;23.60;91.00;;;;;;5051827;28;20392;-86
2022/06/16 12:01:35;;;;;;;2.95;1.90;;;23.60;90.40;;;;;;5050657;28;20383;-85
2022/06/16 12:04:10;;;;;;;3.50;2.30;;;23.60;90.30;;;;;;5049544;28;20392;-87
2022/06/16 12:07:00;;;;;;;3.83;2.03;;;23.40;90.00;;;;;;5050946;28;20460;-88
2022/06/16 12:09:47;;;;;;;4.93;2.13;;;23.30;90.30;;;;;;5048089;28;20411;-87
2022/06/16 12:12:28;;;;;;;4.30;2.07;;;23.50;91.60;;;;;;5050430;28;20380;-86
2022/06/16 12:15:25;;;;;;;4.47;2.10;;;23.80;90.70;;;;;;5050147;28;20382;-87
2022/06/16 12:18:12;;;;;;;3.97;1.75;;;23.80;90.50;;;;;;5047741;28;20399;-87
2022/06/16 12:21:08;;;;;;;3.80;2.10;;;23.80;91.10;;;;;;5048017;28;20419;-87
2022/06/16 12:24:01;;;;;;;5.15;2.22;;;24.00;90.90;;;;;;5049127;28;20471;-86
2022/06/16 12:26:38;;;;;;;5.20;2.30;;;24.20;88.90;;;;;;5049084;28;20400;-88
2022/06/16 12:29:22;;;;;;;5.05;2.10;;;24.20;89.20;;;;;;5050611;28;20384;-86
2022/06/16 12:32:09;;;;;;;3.60;1.92;;;24.10;87.60;;;;;;5048560;28;21020;-85
2022/06/16 12:34:53;;;;;;;5.63;2.40;;;24.10;89.10;;;;;;5030848;28;20397;-86
2022/06/16 12:37:22;;;;;;;4.90;2.10;;;24.10;90.00;;;;;;5030954;28;20409;-89
2022/06/16 12:39:56;;;;;;;4.97;2.40;;;24.20;90.10;;;;;;5047060;28;20457;-85
2022/06/16 12:42:24;;;;;;;4.75;2.10;;;24.10;89.30;;;;;;5048881;28;20742;-85
2022/06/16 12:45:00;;;;;;;3.03;1.65;;;23.90;89.20;;;;;;5050326;28;20510;-87
2022/06/16 12:47:31;;;;;;;4.20;2.13;;;24.00;90.70;;;;;;5050544;28;20379;-87
2022/06/16 12:49:59;;;;;;;3.78;2.30;;;24.00;88.60;;;;;;5049083;28;20395;-85
2022/06/16 12:52:39;;;;;;;4.53;2.10;;;24.10;88.70;;;;;;5049254;28;20392;-87
2022/06/16 12:55:13;;;;;;;2.92;1.90;;;24.10;89.10;;;;;;5050401;28;20866;-87
2022/06/16 12:57:49;;;;;;;4.10;2.10;;;24.10;88.50;;;;;;5049269;28;20404;-87
2022/06/16 13:00:19;;;;;;;4.03;2.10;;;24.30;89.80;;;;;;5049059;28;20804;-87
2022/06/16 13:03:08;;;;;;;3.78;1.90;;;24.60;90.10;;;;;;5049702;28;20387;-87
2022/06/16 13:05:34;;;;;;;7.15;2.15;;;24.80;88.80;;;;;;5048530;28;20379;-88
2022/06/16 13:08:02;;;;;;;3.43;2.00;;;24.70;87.00;;;;;;5049202;28;20403;-88
2022/06/16 13:10:35;;;;;;;6.30;2.50;;;24.50;89.50;;;;;;5048980;28;20404;-84
2022/06/16 13:13:01;;;;;;;6.43;2.20;;;24.40;89.80;;;;;;5050250;28;21302;-88
2022/06/16 13:15:40;;;;;;;4.15;2.00;;;24.30;90.30;;;;;;5049086;28;20395;-87
2022/06/16 13:18:15;;;;;;;4.15;2.05;;;24.10;90.10;;;;;;5049201;28;20399;-85
2022/06/16 13:20:45;;;;;;;4.72;2.00;;;24.40;90.00;;;;;;5049641;28;20711;-85
2022/06/16 13:23:15;;;;;;;4.32;2.58;;;24.50;88.00;;;;;;5048338;28;20419;-85
2022/06/16 13:26:26;;;;;;;5.60;2.22;;;24.70;86.20;;;;;;5047210;28;20473;-88
2022/06/16 13:29:21;;;;;;;5.38;2.60;;;24.80;87.90;;;;;;5047690;28;20390;-85
2022/06/16 13:32:10;;;;;;;4.13;2.17;;;24.40;88.80;;;;;;5040384;28;20832;-85
2022/06/16 13:34:38;;;;;;;4.25;1.77;;;24.20;89.60;;;;;;5046873;28;20449;-87